Ergonot — WDB8189 — position and weather

sailwx.info

Track history (hours):
 
Tides and Currents Weather Stations Pressure Air Temp Water Temp Dewpoint Dewpoint Depression Visibility Wind Speed Wind Dir Waves Ship Positions

Ergonot

Owner: Ergon Marine & Industrial Supply, Vicksburg, MS. More information available from US FCC via Universal Licensing System and Coast Guard Vessel Documentation Center.

Last reported at 2017-Nov-19 05:15 UTC. Time now 2017-Nov-19 06:46 UTC.
Position N 32°20' W 090°54'.

Length 56 m.

Type: Towing. MMSI: 365905904.

Date/timePositionNaut miles runAvg speedWind from/ knotsBaromVisibWave heightAir tempDewpointWater temp
2017-Nov-19 05:15N 32°20' W 090°54'0 0.5
2017-Nov-19 05:00N 32°20' W 090°54'0 0.4
2017-Nov-19 04:30N 32°20' W 090°54'2 4.3
2017-Nov-19 04:00N 32°21' W 090°56'1 2.2
2017-Nov-19 03:30N 32°21' W 090°58'0 0.6
2017-Nov-19 03:00N 32°21' W 090°57'0 0.6
2017-Nov-19 02:30N 32°21' W 090°58'0 0.2
2017-Nov-19 02:00N 32°21' W 090°58'1 1.3
2017-Nov-19 01:30N 32°21' W 090°57'2 4.1
2017-Nov-19 01:00N 32°20' W 090°55'1 1.7
2017-Nov-19 00:30N 32°20' W 090°54'0 0.1
2017-Nov-19 00:00N 32°20' W 090°54'0 0.0
2017-Nov-18 23:30N 32°20' W 090°54'2 4.4
2017-Nov-18 23:00N 32°21' W 090°56'1 2.4
2017-Nov-18 22:30N 32°21' W 090°58'0 0.2
2017-Nov-18 22:00N 32°21' W 090°58'0 0.1
2017-Nov-18 21:30N 32°21' W 090°58'0 0.1
2017-Nov-18 21:00N 32°21' W 090°58'0 0.2
2017-Nov-18 20:30N 32°21' W 090°57'1 1.0
2017-Nov-18 20:00N 32°21' W 090°57'2 4.3
2017-Nov-18 19:30N 32°20' W 090°55'  
2017-Nov-14 17:15N 32°20' W 090°54'0 1.6
2017-Nov-14 17:00N 32°20' W 090°54'0 0.3
2017-Nov-14 16:30N 32°20' W 090°54'  
2017-Nov-09 21:38N 32°20' W 090°54'0 0.5
2017-Nov-09 21:30N 32°20' W 090°54'0 0.1
2017-Nov-09 21:00N 32°20' W 090°54'0 0.0
2017-Nov-09 20:30N 32°20' W 090°54'  
Track history (hours):
 
Tides and Currents Weather Stations Pressure Air Temp Water Temp Dewpoint Dewpoint Depression Visibility Wind Speed Wind Dir Waves Ship Positions

Ergonot

Owner: Ergon Marine & Industrial Supply, Vicksburg, MS. More information available from US FCC via Universal Licensing System and Coast Guard Vessel Documentation Center.

Last reported at 2017-Nov-19 05:15 UTC. Time now 2017-Nov-19 06:46 UTC.
Position N 32°20' W 090°54'.

Length 56 m.

Type: Towing. MMSI: 365905904.

Date/timePositionNaut miles runAvg speedWind from/ knotsBaromVisibWave heightAir tempDewpointWater temp
2017-Nov-19 05:15N 32°20' W 090°54'0 0.5
2017-Nov-19 05:00N 32°20' W 090°54'0 0.4
2017-Nov-19 04:30N 32°20' W 090°54'2 4.3
2017-Nov-19 04:00N 32°21' W 090°56'1 2.2
2017-Nov-19 03:30N 32°21' W 090°58'0 0.6
2017-Nov-19 03:00N 32°21' W 090°57'0 0.6
2017-Nov-19 02:30N 32°21' W 090°58'0 0.2
2017-Nov-19 02:00N 32°21' W 090°58'1 1.3
2017-Nov-19 01:30N 32°21' W 090°57'2 4.1
2017-Nov-19 01:00N 32°20' W 090°55'1 1.7
2017-Nov-19 00:30N 32°20' W 090°54'0 0.1
2017-Nov-19 00:00N 32°20' W 090°54'0 0.0
2017-Nov-18 23:30N 32°20' W 090°54'2 4.4
2017-Nov-18 23:00N 32°21' W 090°56'1 2.4
2017-Nov-18 22:30N 32°21' W 090°58'0 0.2
2017-Nov-18 22:00N 32°21' W 090°58'0 0.1
2017-Nov-18 21:30N 32°21' W 090°58'0 0.1
2017-Nov-18 21:00N 32°21' W 090°58'0 0.2
2017-Nov-18 20:30N 32°21' W 090°57'1 1.0
2017-Nov-18 20:00N 32°21' W 090°57'2 4.3
2017-Nov-18 19:30N 32°20' W 090°55'  
2017-Nov-14 17:15N 32°20' W 090°54'0 1.6
2017-Nov-14 17:00N 32°20' W 090°54'0 0.3
2017-Nov-14 16:30N 32°20' W 090°54'  
2017-Nov-09 21:38N 32°20' W 090°54'0 0.5
2017-Nov-09 21:30N 32°20' W 090°54'0 0.1
2017-Nov-09 21:00N 32°20' W 090°54'0 0.0
2017-Nov-09 20:30N 32°20' W 090°54'  

Dump ship's entire track history